Monday, December 18, 2017, 11:32 AM EST
Back to Local

KISP, Islip Long Island Mac Art

Location: Ronkonkoma, NY, United States Lat: 40.8
Local Time: 11:32 AM EST (16:32 GMT) Lon: -73.1
Time Zone: US/Eastern Elev: 98 ft

Show me the last for .
Show Decoded

2017-12-18 10:56 METAR KISP 181556Z 07004KT 4SM -RA BR FEW012 BKN025 OVC036 03/02 A3006 RMK AO2
                 SLP179 P0002 T00280022 =
2017-12-18 10:32 METAR KISP 181532Z 04003KT 2SM -RA BR BKN012 BKN020 OVC036 02/01 A3008 RMK AO2
                 SFC VIS 2 1/2 P0001 T00220011 =
2017-12-18 09:56 METAR KISP 181456Z 00000KT 6SM -RA BR OVC020 02/00 A3009 RMK AO2 RAB08E17B35
                 SLP190 P0000 60000 T00170000 58013 =
2017-12-18 08:56 METAR KISP 181356Z 04003KT 10SM BKN027 OVC033 01/M02 A3010 RMK AO2 SLP194
                 T00111022 =
2017-12-18 08:50 METAR KISP 181350Z 03003KT 10SM BKN027 OVC035 01/M02 A3010 RMK AO2 =
2017-12-18 07:56 METAR KISP 181256Z COR 01005KT 10SM SCT034 BKN048 OVC065 01/M02 A3012 RMK AO2
                 SLP199 P0000 T00111022 =
2017-12-18 06:56 METAR KISP 181156Z 04003KT 10SM OVC032 01/M04 A3013 RMK AO2 SLP203 60001 70001
                 T00111039 10011 20000 56011 =
2017-12-18 05:56 METAR KISP 181056Z 08005KT 10SM FEW031 BKN048 OVC060 01/M04 A3014 RMK AO2
                 UPE0959B22E27RAB0959E22 SLP205 P0001 T00061044 =
2017-12-18 04:56 METAR KISP 180956Z AUTO 05004KT 10SM UP BKN035 OVC044 01/M05 A3015 RMK AO2
                 UPB06RAB17E27B46E55 SLP208 P0000 T00061050 =
2017-12-18 03:56 METAR KISP 180856Z AUTO 07004KT 10SM SCT020 OVC060 01/M07 A3016 RMK AO2 SLP214
                 T00061067 58010 =
2017-12-18 03:38 METAR KISP 180838Z AUTO 05004KT 10SM SCT021 BKN045 OVC065 01/M07 A3017 RMK AO2
                 T00061067 =
2017-12-18 02:56 METAR KISP 180756Z AUTO 07004KT 10SM OVC021 01/M06 A3019 RMK AO2 SLP222
                 T00061061 =
2017-12-18 01:56 METAR KISP 180656Z AUTO 05005KT 10SM OVC021 01/M06 A3019 RMK AO2 SLP223
                 T00061056 =
2017-12-18 00:56 METAR KISP 180556Z AUTO 06004KT 10SM OVC020 00/M06 A3019 RMK AO2 SLP224
                 T00001056 10006 20000 56019 =
2017-12-18 00:29 METAR KISP 180529Z AUTO 05004KT 10SM BKN020 BKN120 00/M06 A3020 RMK AO2
                 T00001056 =
2017-12-17 23:56 METAR KISP 180456Z 10003KT 10SM SCT021 SCT110 OVC130 00/M06 A3021 RMK AO2 SLP229
                 LAST T00001056 400111028 =
2017-12-17 22:56 METAR KISP 180356Z 08003KT 10SM BKN021 OVC100 00/M04 A3022 RMK AO2 SLP233
                 T00001044 =
2017-12-17 21:56 METAR KISP 180256Z 00000KT 10SM BKN020 OVC110 01/M04 A3025 RMK AO2 SLP242
                 T00061044 58007 =
2017-12-17 20:56 METAR KISP 180156Z 00000KT 10SM BKN022 BKN060 BKN120 OVC200 01/M04 A3026 RMK AO2
                 SLP246 T00061044 =
2017-12-17 19:56 METAR KISP 180056Z 03003KT 10SM FEW060 BKN120 OVC200 00/M04 A3027 RMK AO2 SLP251
                 T00001039 =
2017-12-17 18:56 METAR KISP 172356Z 03003KT 10SM SCT060 BKN130 OVC210 00/M04 A3027 RMK AO2 SLP249
                 T00001039 10011 21006 53005 =
2017-12-17 17:56 METAR KISP 172256Z 00000KT 10SM BKN060 BKN120 OVC200 M01/M04 A3025 RMK AO2
                 SLP245 T10061044 =
2017-12-17 16:56 METAR KISP 172156Z 36003KT 10SM FEW045 SCT120 OVC200 00/M05 A3025 RMK AO2 SLP243
                 T00001050 =
2017-12-17 15:56 METAR KISP 172056Z 35005KT 10SM FEW045 SCT100 OVC180 01/M05 A3025 RMK AO2 SLP244
                 T00061050 55000 =
2017-12-17 14:56 METAR KISP 171956Z 35004KT 10SM SCT045 BKN100 OVC180 01/M05 A3023 RMK AO2 SLP238
                 T00061050 =
2017-12-17 13:56 METAR KISP 171856Z 35004KT 10SM OVC045 01/M06 A3024 RMK AO2 SLP241 T00061056 =
2017-12-17 12:56 METAR KISP 171756Z 36006KT 10SM BKN044 OVC060 01/M06 A3025 RMK AO2 SLP244
                 T00061061 10006 21028 58017 =
2017-12-17 11:56 METAR KISP 171656Z 35006KT 10SM OVC039 00/M07 A3027 RMK AO2 SLP252 T00001067 =

Support USWX by starting your Amazon purchase here.